ADDS METAR Data INFO
IDs: Format: Raw Decoded Include TAF

Data at: 0129 UTC 20 Feb 2018

KLRD 200056Z 14015G21KT 10SM CLR 28/19 A2975 RMK AO2 SLP077 T02830189
KLRD 192356Z 16011KT 10SM CLR 31/16 A2974 RMK AO2 SLP072 T03060161 10322 20272 55006
KLRD 192256Z 15013KT 10SM CLR 32/16 A2973 RMK AO2 SLP069 T03170161
KLRD 192156Z 17011KT 10SM CLR 31/17 A2975 RMK AO2 SLP074 T03110167
KLRD 192056Z 17013KT 10SM CLR 30/17 A2976 RMK AO2 SLP078 T03000167 56034
KLRD 191956Z 17014KT 10SM CLR 31/17 A2978 RMK AO2 SLP085 T03060172
KLRD 191856Z 18013KT 10SM CLR 29/17 A2983 RMK AO2 SLP101 T02890172
KLRD 191756Z 18012KT 10SM FEW034 27/18 A2986 RMK AO2 SLP114 T02720178 10272 20206 58003
KLRD 191656Z 16015KT 10SM FEW030 27/18 A2988 RMK AO2 SLP120 T02670178
KLRD 191556Z 16014G20KT 10SM SCT022 23/18 A2988 RMK AO2 SLP121 T02330178
KLRD 191456Z 15015G22KT 10SM FEW020 22/18 A2987 RMK AO2 SLP118 T02170178 53012
KLRD 191356Z 15015KT 10SM CLR 21/18 A2986 RMK AO2 SLP112 T02110178
KLRD 191256Z 15017KT 10SM CLR 21/18 A2983 RMK AO2 SLP103 T02060178
KLRD 191156Z 14015G20KT 10SM CLR 21/18 A2984 RMK AO2 SLP105 T02060178 10217 20206 58004
KLRD 191056Z AUTO 15013KT 10SM CLR 21/18 A2986 RMK AO2 SLP112 T02060183
KLRD 190956Z AUTO 17015KT 10SM CLR 21/18 A2986 RMK AO2 SLP112 T02110183
KLRD 190856Z AUTO 15017G23KT 10SM FEW017 21/18 A2985 RMK AO2 SLP109 T02110183 58002
KLRD 190756Z AUTO 15015G22KT 10SM CLR 21/18 A2986 RMK AO2 SLP111 T02110183
KLRD 190656Z AUTO 15016G23KT 10SM FEW018 22/18 A2986 RMK AO2 SLP113 T02170183
KLRD 190556Z AUTO 14020G25KT 10SM CLR 22/18 A2986 RMK AO2 PK WND 15026/0518 SLP111 T02170183 10289 20217 403110183 58009
KLRD 190456Z AUTO 14016G26KT 10SM CLR 22/18 A2987 RMK AO2 PK WND 14028/0443 SLP118 T02220183
KLRD 190356Z AUTO 14018G23KT 10SM CLR 23/17 A2989 RMK AO2 PK WND 14027/0344 SLP122 T02330167
KLRD 190256Z AUTO 14019G23KT 10SM CLR 24/17 A2988 RMK AO2 PK WND 13027/0241 SLP121 T02440167 52007
KLRD 190156Z AUTO 14017G23KT 10SM CLR 25/17 A2987 RMK AO2 SLP119 T02500172
KLRD 190056Z 13016G24KT 10SM CLR 27/17 A2987 RMK AO2 PK WND 13026/0022 SLP117 T02670172
KLRD 182356Z 15016KT 10SM SCT070 29/15 A2986 RMK AO2 SLP113 T02940150 10311 20261 55009
KLRD 182256Z 15016KT 10SM BKN065 31/15 A2986 RMK AO2 SLP112 T03110150
KLRD 182156Z 15016G22KT 10SM SCT065 31/15 A2986 RMK AO2 SLP114 T03060150
KLRD 182056Z 18014G19KT 10SM SCT055 BKN070 30/17 A2989 RMK AO2 SLP123 T03000172 57045
KLRD 181956Z 18016G24KT 10SM SCT049 BKN065 29/17 A2993 RMK AO2 SLP137 T02940167
KLRD 181856Z 16012G18KT 10SM BKN039 BKN048 BKN060 28/18 A2998 RMK AO2 SLP155 T02830178
KLRD 181756Z 16008KT 10SM FEW023 SCT028 BKN035 27/18 A3003 RMK AO2 SLP169 T02670183 10267 20183 58012
KLRD 181656Z 14008KT 10SM OVC020 24/19 A3006 RMK AO2 SLP181 T02390189
KLRD 181556Z 16008KT 10SM OVC015 23/19 A3006 RMK AO2 SLP183 T02280189
KLRD 181553Z 16009KT 10SM OVC015 23/19 A3006 RMK AO2
KLRD 181503Z 17008KT 10SM OVC013 22/19 A3006 RMK AO2
KLRD 181456Z 15007KT 9SM OVC015 22/19 A3006 RMK AO2 SLP181 T02170189 53014
KLRD 181356Z 11005KT 6SM BR OVC015 21/18 A3004 RMK AO2 SLP177 T02060183